Hauptseite
METAR-TAF:

METAR-TAF

Flughäfen :

Flughafen Glasgow-Prestwick

Glasgow-Prestwick, Schottland

Breite: 55-30N, Länge: 004-35W, Höhe: 20 m

Beobachtung

Neuester Wetterbericht von vor 27 Minuten, um 13:20 UTC
Wind 5 kt aus West, variierte zwischen Südwest und West/Nordwest
Temperatur 16°C
Luftfeuchtigkeit 59%
Luftdruck 1038 hPa
Sichtweite 10 km oder mehr
Leicht bewölkt in der Höhe von 4500 ft

METAR: EGPK 271320Z 27005KT 230V300 9999 FEW045 16/08 Q1038

Zeit: 14:47 (13:47 UTC)

Prognose

Neuester Wetterbericht von vor 2 Stunden und 50 Minuten, um 10:57 UTC
Gültige Prognose vom 27 um 12 UTC bis 28 um 12 UTC
Wind 8 kt aus West
Sichtweite 10 km oder mehr
Leicht bewölkt in der Höhe von 4000 ft
Wahrscheinlichkeit 30% :
Zeitweise
vom 27 um 17 UTC bis 27 um 24 UTC
Sichtweite: 7000 m
Leichtregen

TAF: EGPK 271057Z 2712/2812 26008KT 9999 FEW040 PROB30 TEMPO 2717/2724 7000 -RA

Wetterbeobachtungen und Prognosen von mehr als 4000 Flughäfen (METAR und TAF Bericht).

Die verfügbaren Stationen werden durch gelbe und rote Markierungen auf der Karte dargestellt.

Führen Sie die Maus auf sie, um den Namen der Station zu sehen.

Darauf klicken, um die Beobachtung von Wetterbeobachtungen und Prognosen zu sehen.

Um die Karte zu ändern : klicken Sie auf den grünen Tasten mit einem schwarzen Kreuz Zum Vergrößern, auf den grünen Button mit einem Gedankenstrich zu verkleinern, oder auf die grünen Pfeile für benachbarte Karten.


METAR-TAF: